HESG

Sohag Airport

Sohag, Egypt
METAR HESG 160500Z 30005KT CAVOK 27/12 Q1007 NOSIG
Observed Flight Rules
Aug-16 @ 05:00 UTC (an hour ago) Visual Flight Rules
Wind Visibility Clouds
300° at 5 knots 10,000+ meters
  • Clear skies
Temperatures Readings
Current 27°C / 81°F
Dewpoint 12°C / 54°F
Humidity 39%
Altimeter 29.73" Hg
Pressure 1007 hPa
Elevation 70
METAR HESG 160500Z 30005KT CAVOK 27/12 Q1007 NOSIG
Observed Flight Rules
Aug-16 @ 05:00 UTC
(an hour ago)
VFR
Wind Visibility
300° at 5 knots 10,000+ meters
Clouds
  • Clear skies
Temperature Dewpoint
27°C / 81°F 12°C / 54°F
Humidity Altimeter Pressure
39% 29.73" Hg 1007 hPa